Time;durP1;ratioP1;P1;durP2;ratioP2;P2;SDS_P1;SDS_P2;PMS_P1;PMS_P2;Temp;Humidity;BMP_temperature;BMP_pressure;BME280_temperature;BME280_humidity;BME280_pressure;Samples;Min_cycle;Max_cycle;Signal;HPM_P1;HPM_P2
2022/12/21 00:04:22;;;;;;;;;;;;;;;5.48;100;101157.4;;;;-74
2022/12/21 00:09:21;;;;;;;;;;;;;;;5.38;100;101155.8;;;;-73
2022/12/21 00:14:21;;;;;;;;;;;;;;;5.34;100;101159.2;;;;-76
2022/12/21 00:19:22;;;;;;;;;;;;;;;5.3;100;101154;;;;-74
2022/12/21 00:22:35;;;;;;;8.7;4.5;;;;;;;;;;;;;-74
2022/12/21 00:24:22;;;;;;;;;;;;;;;5.22;100;101144.2;;;;-75
2022/12/21 00:29:21;;;;;;;;;;;;;;;5.15;100;101137.3;;;;-74
2022/12/21 00:34:21;;;;;;;;;;;;;;;5.1;100;101136.8;;;;-74
2022/12/21 00:39:21;;;;;;;;;;;;;;;5.08;100;101137.7;;;;-73
2022/12/21 00:44:21;;;;;;;;;;;;;;;5.03;100;101141.9;;;;-73
2022/12/21 00:49:21;;;;;;;;;;;;;;;5;100;101136.7;;;;-73
2022/12/21 00:52:35;;;;;;;10.7;4.7;;;;;;;;;;;;;-75
2022/12/21 00:54:21;;;;;;;;;;;;;;;4.96;100;101134.7;;;;-73
2022/12/21 00:59:21;;;;;;;;;;;;;;;4.94;100;101131.3;;;;-74
2022/12/21 01:04:21;;;;;;;;;;;;;;;4.9;100;101127.9;;;;-74
2022/12/21 01:09:21;;;;;;;;;;;;;;;4.88;100;101125.9;;;;-73
2022/12/21 01:14:21;;;;;;;;;;;;;;;4.83;100;101125.5;;;;-73
2022/12/21 01:19:21;;;;;;;;;;;;;;;4.8;100;101130.4;;;;-74
2022/12/21 01:22:35;;;;;;;9.2;4.2;;;;;;;;;;;;;-74
2022/12/21 01:24:21;;;;;;;;;;;;;;;4.76;100;101135.2;;;;-73
2022/12/21 01:29:22;;;;;;;;;;;;;;;4.7;100;101133.6;;;;-74
2022/12/21 01:34:21;;;;;;;;;;;;;;;4.67;100;101135.1;;;;-74
2022/12/21 01:39:21;;;;;;;;;;;;;;;4.59;100;101135.3;;;;-75
2022/12/21 01:44:32;;;;;;;;;;;;;;;4.52;100;101145.2;;;;-74
2022/12/21 01:49:23;;;;;;;;;;;;;;;4.46;100;101151.3;;;;-74
2022/12/21 01:52:35;;;;;;;8.2;3.7;;;;;;;;;;;;;-75
2022/12/21 01:54:23;;;;;;;;;;;;;;;4.39;100;101156.6;;;;-74
2022/12/21 01:59:24;;;;;;;;;;;;;;;4.33;100;101162.6;;;;-74
2022/12/21 02:04:22;;;;;;;;;;;;;;;4.26;100;101161.1;;;;-75
2022/12/21 02:09:22;;;;;;;;;;;;;;;4.23;100;101153.6;;;;-74
2022/12/21 02:14:21;;;;;;;;;;;;;;;4.14;100;101149.5;;;;-74
2022/12/21 02:19:32;;;;;;;;;;;;;;;4.05;100;101154.7;;;;-74
2022/12/21 02:22:38;;;;;;;5.8;3.1;;;;;;;;;;;;;-74
2022/12/21 02:24:32;;;;;;;;;;;;;;;4.02;100;101150.2;;;;-74
2022/12/21 02:29:32;;;;;;;;;;;;;;;3.98;100;101144.9;;;;-74
2022/12/21 02:34:26;;;;;;;;;;;;;;;3.92;100;101139;;;;-74
2022/12/21 02:39:27;;;;;;;;;;;;;;;3.85;100;101141.3;;;;-74
2022/12/21 02:44:28;;;;;;;;;;;;;;;3.8;100;101144;;;;-74
2022/12/21 02:49:26;;;;;;;;;;;;;;;3.74;100;101139;;;;-73
2022/12/21 02:52:36;;;;;;;6.8;2.8;;;;;;;;;;;;;-73
2022/12/21 02:54:21;;;;;;;;;;;;;;;3.71;100;101132.3;;;;-74
2022/12/21 02:59:23;;;;;;;;;;;;;;;3.67;100;101129.4;;;;-73
2022/12/21 03:04:35;;;;;;;;;;;;;;;3.66;100;101143.2;;;;-74
2022/12/21 03:09:29;;;;;;;;;;;;;;;3.65;100;101142.3;;;;-74
2022/12/21 03:14:26;;;;;;;;;;;;;;;3.62;100;101135.5;;;;-74
2022/12/21 03:19:22;;;;;;;;;;;;;;;3.61;100;101135.8;;;;-74
2022/12/21 03:22:37;;;;;;;4.7;2.3;;;;;;;;;;;;;-74
2022/12/21 03:24:26;;;;;;;;;;;;;;;3.59;100;101132.5;;;;-74
2022/12/21 03:29:23;;;;;;;;;;;;;;;3.57;100;101135;;;;-74
2022/12/21 03:34:23;;;;;;;;;;;;;;;3.57;100;101135.5;;;;-74
2022/12/21 03:39:24;;;;;;;;;;;;;;;3.57;100;101131.5;;;;-74
2022/12/21 03:44:22;;;;;;;;;;;;;;;3.56;100;101123.9;;;;-74
2022/12/21 03:49:22;;;;;;;;;;;;;;;3.54;100;101120.2;;;;-75
2022/12/21 03:52:36;;;;;;;5;2.3;;;;;;;;;;;;;-74
2022/12/21 03:54:24;;;;;;;;;;;;;;;3.5;100;101101.5;;;;-74
2022/12/21 03:59:21;;;;;;;;;;;;;;;3.43;100;101092.7;;;;-74
2022/12/21 04:04:24;;;;;;;;;;;;;;;3.46;100;101102.1;;;;-73
2022/12/21 04:09:21;;;;;;;;;;;;;;;3.45;100;101114.5;;;;-74
2022/12/21 04:14:21;;;;;;;;;;;;;;;3.44;100;101109.3;;;;-74
2022/12/21 04:29:21;;;;;;;;;;;;;;;3.46;100;101093.5;;;;-73
2022/12/21 04:34:21;;;;;;;;;;;;;;;3.47;100;101085.7;;;;-73
2022/12/21 04:39:21;;;;;;;;;;;;;;;3.48;100;101077.7;;;;-73
2022/12/21 04:44:21;;;;;;;;;;;;;;;3.5;100;101075.9;;;;-74
2022/12/21 04:49:21;;;;;;;;;;;;;;;3.49;100;101081.9;;;;-74
2022/12/21 04:52:33;;;;;;;6;2.6;;;;;;;;;;;;;-74
2022/12/21 04:54:21;;;;;;;;;;;;;;;3.52;100;101094.5;;;;-74
2022/12/21 04:59:21;;;;;;;;;;;;;;;3.51;100;101100.5;;;;-74
2022/12/21 05:04:21;;;;;;;;;;;;;;;3.52;100;101101.2;;;;-74
2022/12/21 05:09:22;;;;;;;;;;;;;;;3.51;100;101103.9;;;;-74
2022/12/21 05:14:21;;;;;;;;;;;;;;;3.5;100;101103.8;;;;-73
2022/12/21 05:19:21;;;;;;;;;;;;;;;3.53;100;101094;;;;-74
2022/12/21 05:22:31;;;;;;;6.3;2.8;;;;;;;;;;;;;-74
2022/12/21 05:24:21;;;;;;;;;;;;;;;3.52;100;101094.6;;;;-75
2022/12/21 05:29:21;;;;;;;;;;;;;;;3.54;100;101088.6;;;;-74
2022/12/21 05:34:21;;;;;;;;;;;;;;;3.55;100;101086.6;;;;-74
2022/12/21 05:39:21;;;;;;;;;;;;;;;3.54;100;101082.3;;;;-74
2022/12/21 05:44:21;;;;;;;;;;;;;;;3.55;100;101096.3;;;;-73
2022/12/21 05:49:21;;;;;;;;;;;;;;;3.56;100;101080.5;;;;-73
2022/12/21 05:52:30;;;;;;;7.8;3;;;;;;;;;;;;;-74
2022/12/21 05:54:21;;;;;;;;;;;;;;;3.54;100;101082.7;;;;-74
2022/12/21 05:59:21;;;;;;;;;;;;;;;3.51;100;101076.9;;;;-74
2022/12/21 06:04:21;;;;;;;;;;;;;;;3.5;100;101080.4;;;;-74
2022/12/21 06:09:23;;;;;;;;;;;;;;;3.48;100;101078;;;;-73
2022/12/21 06:14:21;;;;;;;;;;;;;;;3.46;100;101081.7;;;;-73
2022/12/21 06:19:21;;;;;;;;;;;;;;;3.45;100;101080.7;;;;-75
2022/12/21 06:22:30;;;;;;;7.7;3.4;;;;;;;;;;;;;-74
2022/12/21 06:24:21;;;;;;;;;;;;;;;3.47;100;101078.2;;;;-73
2022/12/21 06:29:21;;;;;;;;;;;;;;;3.5;100;101067.8;;;;-73
2022/12/21 06:34:21;;;;;;;;;;;;;;;3.53;100;101057.1;;;;-74
2022/12/21 06:39:21;;;;;;;;;;;;;;;3.56;100;101062;;;;-74
2022/12/21 06:44:21;;;;;;;;;;;;;;;3.63;100;101059.2;;;;-73
2022/12/21 06:49:21;;;;;;;;;;;;;;;3.75;100;101063.7;;;;-75
2022/12/21 06:52:29;;;;;;;8.7;4.1;;;;;;;;;;;;;-74
2022/12/21 06:54:21;;;;;;;;;;;;;;;3.71;100;101066.4;;;;-74
2022/12/21 06:59:21;;;;;;;;;;;;;;;3.73;100;101068.2;;;;-74
2022/12/21 07:04:21;;;;;;;;;;;;;;;3.78;100;101071.2;;;;-73
2022/12/21 07:09:21;;;;;;;;;;;;;;;3.8;100;101081.5;;;;-74
2022/12/21 07:14:21;;;;;;;;;;;;;;;3.8;100;101086.3;;;;-74
2022/12/21 07:19:21;;;;;;;;;;;;;;;3.81;100;101085.7;;;;-73
2022/12/21 07:22:28;;;;;;;11.2;4.8;;;;;;;;;;;;;-74
2022/12/21 07:24:21;;;;;;;;;;;;;;;3.81;100;101091.7;;;;-74
2022/12/21 07:29:21;;;;;;;;;;;;;;;3.8;100;101088.4;;;;-73
2022/12/21 07:34:21;;;;;;;;;;;;;;;3.8;100;101095.3;;;;-74
2022/12/21 07:39:21;;;;;;;;;;;;;;;3.8;100;101094.5;;;;-74
2022/12/21 07:44:21;;;;;;;;;;;;;;;3.76;100;101092.8;;;;-74
2022/12/21 07:49:21;;;;;;;;;;;;;;;3.72;100;101095.5;;;;-74
2022/12/21 07:52:28;;;;;;;11.1;4.9;;;;;;;;;;;;;-74
2022/12/21 07:54:22;;;;;;;;;;;;;;;3.66;100;101093.2;;;;-74
2022/12/21 07:59:21;;;;;;;;;;;;;;;3.62;100;101091.2;;;;-74
2022/12/21 08:04:21;;;;;;;;;;;;;;;3.62;100;101095.7;;;;-74
2022/12/21 08:09:21;;;;;;;;;;;;;;;3.58;100;101096.1;;;;-74
2022/12/21 08:14:21;;;;;;;;;;;;;;;3.55;100;101093.2;;;;-74
2022/12/21 08:19:21;;;;;;;;;;;;;;;3.52;100;101108;;;;-74
2022/12/21 08:22:27;;;;;;;10;4.6;;;;;;;;;;;;;-74
2022/12/21 08:24:21;;;;;;;;;;;;;;;3.52;100;101109.6;;;;-74
2022/12/21 08:29:21;;;;;;;;;;;;;;;3.58;100;101111.4;;;;-74
2022/12/21 08:34:21;;;;;;;;;;;;;;;3.61;100;101107.2;;;;-73
2022/12/21 08:39:21;;;;;;;;;;;;;;;3.64;100;101103.5;;;;-74
2022/12/21 08:44:21;;;;;;;;;;;;;;;3.69;100;101115.1;;;;-74
2022/12/21 08:49:21;;;;;;;;;;;;;;;3.71;100;101114.6;;;;-74
2022/12/21 08:52:26;;;;;;;19.3;6.6;;;;;;;;;;;;;-73
2022/12/21 08:54:21;;;;;;;;;;;;;;;3.86;100;101111.1;;;;-74
2022/12/21 08:59:21;;;;;;;;;;;;;;;3.97;100;101110.6;;;;-73
2022/12/21 09:04:21;;;;;;;;;;;;;;;4.05;100;101103.7;;;;-74
2022/12/21 09:09:21;;;;;;;;;;;;;;;4.11;100;101097.4;;;;-74
2022/12/21 09:14:21;;;;;;;;;;;;;;;4.15;100;101084.7;;;;-74
2022/12/21 09:19:21;;;;;;;;;;;;;;;4.2;100;101083.8;;;;-76
2022/12/21 09:22:26;;;;;;;18.4;7.7;;;;;;;;;;;;;-74
2022/12/21 09:24:21;;;;;;;;;;;;;;;4.27;100;101081.3;;;;-75
2022/12/21 09:29:22;;;;;;;;;;;;;;;4.35;100;101093.6;;;;-74
2022/12/21 09:34:21;;;;;;;;;;;;;;;4.4;100;101086.7;;;;-74
2022/12/21 09:39:21;;;;;;;;;;;;;;;4.5;100;101084.9;;;;-74
2022/12/21 09:44:27;;;;;;;;;;;;;;;4.57;100;101083.4;;;;-75
2022/12/21 09:49:23;;;;;;;;;;;;;;;4.66;100;101076.4;;;;-74
2022/12/21 09:52:27;;;;;;;25.2;9.6;;;;;;;;;;;;;-75
2022/12/21 09:54:23;;;;;;;;;;;;;;;4.72;100;101078.3;;;;-74
2022/12/21 09:59:23;;;;;;;;;;;;;;;4.76;100;101070.7;;;;-74
2022/12/21 10:04:28;;;;;;;;;;;;;;;4.79;100;101073;;;;-74
2022/12/21 10:09:33;;;;;;;;;;;;;;;4.85;100;101076;;;;-75
2022/12/21 10:14:29;;;;;;;;;;;;;;;4.92;100;101076.4;;;;-74
2022/12/21 10:19:30;;;;;;;;;;;;;;;5;100;101070.8;;;;-75
2022/12/21 10:22:27;;;;;;;32.6;11.2;;;;;;;;;;;;;-75
2022/12/21 10:24:23;;;;;;;;;;;;;;;5.13;100;101075.5;;;;-75
2022/12/21 10:29:24;;;;;;;;;;;;;;;5.23;100;101061.3;;;;-75
2022/12/21 10:34:22;;;;;;;;;;;;;;;5.43;100;101072.5;;;;-75
2022/12/21 10:39:21;;;;;;;;;;;;;;;5.53;100;101063.7;;;;-74
2022/12/21 10:44:21;;;;;;;;;;;;;;;5.69;100;101070;;;;-75
2022/12/21 10:49:28;;;;;;;;;;;;;;;5.79;100;101074.2;;;;-75
2022/12/21 10:52:44;;;;;;;26.9;10.4;;;;;;;;;;;;;-73
2022/12/21 10:54:29;;;;;;;;;;;;;;;5.84;100;101066.1;;;;-74
2022/12/21 10:59:23;;;;;;;;;;;;;;;5.88;100;101056;;;;-74
2022/12/21 11:04:29;;;;;;;;;;;;;;;5.89;100;101044.4;;;;-74
2022/12/21 11:09:32;;;;;;;;;;;;;;;5.96;100;101041.7;;;;-78
2022/12/21 11:14:23;;;;;;;;;;;;;;;6.01;100;101036.3;;;;-79
2022/12/21 11:19:22;;;;;;;;;;;;;;;6.05;100;101026.6;;;;-79
2022/12/21 11:22:29;;;;;;;25.7;9.3;;;;;;;;;;;;;-79
2022/12/21 11:24:23;;;;;;;;;;;;;;;6.15;100;101025.7;;;;-80
2022/12/21 11:29:24;;;;;;;;;;;;;;;6.15;100;101024.5;;;;-79
2022/12/21 11:34:30;;;;;;;;;;;;;;;6.19;100;101023.1;;;;-80
2022/12/21 11:39:24;;;;;;;;;;;;;;;6.28;100;101009.2;;;;-80
2022/12/21 11:44:25;;;;;;;;;;;;;;;6.34;100;101013.5;;;;-80
2022/12/21 11:49:32;;;;;;;;;;;;;;;6.37;100;101014.6;;;;-75
2022/12/21 11:52:31;;;;;;;26.4;10.2;;;;;;;;;;;;;-75
2022/12/21 11:54:26;;;;;;;;;;;;;;;6.38;100;101001.5;;;;-74
2022/12/21 11:59:36;;;;;;;;;;;;;;;6.42;100;100992.8;;;;-75
2022/12/21 12:04:31;;;;;;;;;;;;;;;6.43;100;100985;;;;-74
2022/12/21 12:09:27;;;;;;;;;;;;;;;6.42;100;100992.7;;;;-74
2022/12/21 12:14:28;;;;;;;;;;;;;;;6.44;100;100990.1;;;;-74
2022/12/21 12:19:24;;;;;;;;;;;;;;;6.47;100;100992.6;;;;-73
2022/12/21 12:22:34;;;;;;;28;11.5;;;;;;;;;;;;;-74
2022/12/21 12:24:30;;;;;;;;;;;;;;;6.47;100;100985.8;;;;-74
2022/12/21 12:29:35;;;;;;;;;;;;;;;6.5;100;100981.6;;;;-73
2022/12/21 12:34:30;;;;;;;;;;;;;;;6.54;100;100975.2;;;;-74
2022/12/21 12:39:27;;;;;;;;;;;;;;;6.63;100;100969.9;;;;-75
2022/12/21 12:44:24;;;;;;;;;;;;;;;6.67;100;100956.6;;;;-75
2022/12/21 12:49:29;;;;;;;;;;;;;;;6.69;100;100960.1;;;;-75
2022/12/21 12:52:30;;;;;;;27.5;11.5;;;;;;;;;;;;;-74
2022/12/21 12:54:26;;;;;;;;;;;;;;;6.74;100;100952.1;;;;-74
2022/12/21 12:59:25;;;;;;;;;;;;;;;6.73;100;100937.7;;;;-74
2022/12/21 13:04:36;;;;;;;;;;;;;;;6.73;100;100930.9;;;;-73
2022/12/21 13:09:29;;;;;;;;;;;;;;;6.73;100;100927.9;;;;-74
2022/12/21 13:14:26;;;;;;;;;;;;;;;6.73;100;100927.2;;;;-75
2022/12/21 13:19:23;;;;;;;;;;;;;;;6.77;100;100924.5;;;;-74
2022/12/21 13:22:26;;;;;;;29.3;11.3;;;;;;;;;;;;;-74
2022/12/21 13:24:23;;;;;;;;;;;;;;;6.77;100;100927.3;;;;-76
2022/12/21 13:29:24;;;;;;;;;;;;;;;6.76;100;100927.4;;;;-74
2022/12/21 13:34:23;;;;;;;;;;;;;;;6.76;100;100925.4;;;;-74
2022/12/21 13:39:26;;;;;;;;;;;;;;;6.75;100;100915.4;;;;-73
2022/12/21 13:44:26;;;;;;;;;;;;;;;6.72;100;100913.5;;;;-73
2022/12/21 13:49:26;;;;;;;;;;;;;;;6.71;100;100914;;;;-73
2022/12/21 13:52:29;;;;;;;25;11.5;;;;;;;;;;;;;-74
2022/12/21 13:54:25;;;;;;;;;;;;;;;6.72;100;100914.6;;;;-74
2022/12/21 13:59:23;;;;;;;;;;;;;;;6.72;100;100918.1;;;;-74
2022/12/21 14:04:25;;;;;;;;;;;;;;;6.67;100;100909.3;;;;-74
2022/12/21 14:09:26;;;;;;;;;;;;;;;6.67;100;100895.2;;;;-73
2022/12/21 14:14:27;;;;;;;;;;;;;;;6.65;100;100897.2;;;;-74
2022/12/21 14:19:25;;;;;;;;;;;;;;;6.65;100;100901.2;;;;-73
2022/12/21 14:22:37;;;;;;;28.8;12.4;;;;;;;;;;;;;-73
2022/12/21 14:24:24;;;;;;;;;;;;;;;6.64;100;100897.4;;;;-72
2022/12/21 14:29:22;;;;;;;;;;;;;;;6.66;100;100903.6;;;;-74
2022/12/21 14:34:22;;;;;;;;;;;;;;;6.66;100;100896.4;;;;-73
2022/12/21 14:39:32;;;;;;;;;;;;;;;6.64;100;100893.4;;;;-73
2022/12/21 14:44:28;;;;;;;;;;;;;;;6.62;100;100892.5;;;;-73
2022/12/21 14:49:27;;;;;;;;;;;;;;;6.62;100;100875.6;;;;-72
2022/12/21 14:52:31;;;;;;;29.3;11.5;;;;;;;;;;;;;-72
2022/12/21 14:54:26;;;;;;;;;;;;;;;6.62;100;100875.4;;;;-74
2022/12/21 14:59:21;;;;;;;;;;;;;;;6.6;100;100857.6;;;;-73
2022/12/21 15:04:30;;;;;;;;;;;;;;;6.62;100;100854.7;;;;-73
2022/12/21 15:09:26;;;;;;;;;;;;;;;6.6;100;100839.1;;;;-74
2022/12/21 15:14:29;;;;;;;;;;;;;;;6.58;100;100832.2;;;;-74
2022/12/21 15:19:31;;;;;;;;;;;;;;;6.58;100;100844;;;;-73
2022/12/21 15:22:36;;;;;;;25.4;10.5;;;;;;;;;;;;;-73
2022/12/21 15:24:27;;;;;;;;;;;;;;;6.56;100;100851.6;;;;-75
2022/12/21 15:29:25;;;;;;;;;;;;;;;6.55;100;100855.6;;;;-73
2022/12/21 15:34:23;;;;;;;;;;;;;;;6.54;100;100855.9;;;;-75
2022/12/21 15:39:24;;;;;;;;;;;;;;;6.55;100;100851.6;;;;-75
2022/12/21 15:44:28;;;;;;;;;;;;;;;6.55;100;100848.7;;;;-74
2022/12/21 15:49:23;;;;;;;;;;;;;;;6.54;100;100844.1;;;;-74
2022/12/21 15:52:37;;;;;;;24.2;9.9;;;;;;;;;;;;;-74
2022/12/21 15:54:23;;;;;;;;;;;;;;;6.54;100;100840;;;;-74
2022/12/21 15:59:23;;;;;;;;;;;;;;;6.55;100;100837.6;;;;-74
2022/12/21 16:04:21;;;;;;;;;;;;;;;6.55;100;100821.3;;;;-74
2022/12/21 16:09:22;;;;;;;;;;;;;;;6.54;100;100829.5;;;;-76
2022/12/21 16:14:23;;;;;;;;;;;;;;;6.55;100;100814;;;;-74
2022/12/21 16:19:28;;;;;;;;;;;;;;;6.56;100;100810.5;;;;-75
2022/12/21 16:22:27;;;;;;;19.7;9.5;;;;;;;;;;;;;-75
2022/12/21 16:24:21;;;;;;;;;;;;;;;6.59;100;100803.8;;;;-75
2022/12/21 16:29:31;;;;;;;;;;;;;;;6.61;100;100796.6;;;;-73
2022/12/21 16:34:31;;;;;;;;;;;;;;;6.61;100;100786.4;;;;-74
2022/12/21 16:39:21;;;;;;;;;;;;;;;6.64;100;100795.9;;;;-75
2022/12/21 16:44:32;;;;;;;;;;;;;;;6.62;100;100787.8;;;;-73
2022/12/21 16:49:32;;;;;;;;;;;;;;;6.64;100;100776.9;;;;-75
2022/12/21 16:52:37;;;;;;;23.8;10.7;;;;;;;;;;;;;-74
2022/12/21 16:54:34;;;;;;;;;;;;;;;6.64;100;100778.9;;;;-77
2022/12/21 16:59:27;;;;;;;;;;;;;;;6.63;100;100769.6;;;;-75
2022/12/21 17:04:23;;;;;;;;;;;;;;;6.6;100;100767.5;;;;-75
2022/12/21 17:09:25;;;;;;;;;;;;;;;6.59;100;100769;;;;-74
2022/12/21 17:14:21;;;;;;;;;;;;;;;6.59;100;100769;;;;-74
2022/12/21 17:19:25;;;;;;;;;;;;;;;6.61;100;100772.1;;;;-74
2022/12/21 17:22:29;;;;;;;21.7;10.8;;;;;;;;;;;;;-74
2022/12/21 17:24:34;;;;;;;;;;;;;;;6.59;100;100770.3;;;;-73
2022/12/21 17:29:22;;;;;;;;;;;;;;;6.62;100;100773.1;;;;-74
2022/12/21 17:34:23;;;;;;;;;;;;;;;6.62;100;100768.7;;;;-74
2022/12/21 17:39:21;;;;;;;;;;;;;;;6.63;100;100765.9;;;;-75
2022/12/21 17:44:22;;;;;;;;;;;;;;;6.63;100;100767.5;;;;-74
2022/12/21 17:49:21;;;;;;;;;;;;;;;6.62;100;100768.5;;;;-73
2022/12/21 17:52:27;;;;;;;23.5;10.9;;;;;;;;;;;;;-74
2022/12/21 17:54:23;;;;;;;;;;;;;;;6.63;100;100768.8;;;;-74
2022/12/21 17:59:21;;;;;;;;;;;;;;;6.61;100;100762.1;;;;-75
2022/12/21 18:04:21;;;;;;;;;;;;;;;6.6;100;100751.2;;;;-76
2022/12/21 18:09:21;;;;;;;;;;;;;;;6.6;100;100747.6;;;;-77
2022/12/21 18:14:21;;;;;;;;;;;;;;;6.57;100;100739.4;;;;-76
2022/12/21 18:19:21;;;;;;;;;;;;;;;6.56;100;100741;;;;-75
2022/12/21 18:22:27;;;;;;;25.5;10.9;;;;;;;;;;;;;-75
2022/12/21 18:24:21;;;;;;;;;;;;;;;6.57;100;100737.6;;;;-75
2022/12/21 18:29:21;;;;;;;;;;;;;;;6.57;100;100732.7;;;;-76
2022/12/21 18:34:22;;;;;;;;;;;;;;;6.58;100;100730.7;;;;-76
2022/12/21 18:39:21;;;;;;;;;;;;;;;6.6;100;100723.4;;;;-74
2022/12/21 18:44:21;;;;;;;;;;;;;;;6.62;100;100711.6;;;;-74
2022/12/21 18:49:21;;;;;;;;;;;;;;;6.62;100;100702.6;;;;-75
2022/12/21 18:52:28;;;;;;;17.3;9.3;;;;;;;;;;;;;-75
2022/12/21 18:54:21;;;;;;;;;;;;;;;6.63;100;100703.7;;;;-76
2022/12/21 18:59:21;;;;;;;;;;;;;;;6.67;100;100695.2;;;;-75
2022/12/21 19:04:23;;;;;;;;;;;;;;;6.67;100;100692.4;;;;-75
2022/12/21 19:09:21;;;;;;;;;;;;;;;6.68;100;100683.9;;;;-76
2022/12/21 19:14:25;;;;;;;;;;;;;;;6.67;100;100689.3;;;;-78
2022/12/21 19:19:22;;;;;;;;;;;;;;;6.71;100;100690.9;;;;-75
2022/12/21 19:22:29;;;;;;;18;9.6;;;;;;;;;;;;;-75
2022/12/21 19:24:22;;;;;;;;;;;;;;;6.69;100;100689.2;;;;-75
2022/12/21 19:29:22;;;;;;;;;;;;;;;6.72;100;100691.4;;;;-75
2022/12/21 19:34:21;;;;;;;;;;;;;;;6.75;100;100684;;;;-75
2022/12/21 19:39:27;;;;;;;;;;;;;;;6.75;100;100672.1;;;;-80
2022/12/21 19:44:21;;;;;;;;;;;;;;;6.76;100;100669.1;;;;-78
2022/12/21 19:49:24;;;;;;;;;;;;;;;6.74;100;100660.6;;;;-79
2022/12/21 19:52:28;;;;;;;17.1;9.1;;;;;;;;;;;;;-80
2022/12/21 19:54:21;;;;;;;;;;;;;;;6.76;100;100661.8;;;;-79
2022/12/21 19:59:24;;;;;;;;;;;;;;;6.77;100;100658.1;;;;-81
2022/12/21 20:04:22;;;;;;;;;;;;;;;6.82;100;100657.1;;;;-80
2022/12/21 20:09:22;;;;;;;;;;;;;;;6.81;100;100637.4;;;;-76
2022/12/21 20:14:25;;;;;;;;;;;;;;;6.81;100;100627.2;;;;-75
2022/12/21 20:19:22;;;;;;;;;;;;;;;6.82;100;100629.4;;;;-76
2022/12/21 20:22:29;;;;;;;16.1;8.6;;;;;;;;;;;;;-75
2022/12/21 20:24:21;;;;;;;;;;;;;;;6.83;100;100620.7;;;;-75
2022/12/21 20:29:22;;;;;;;;;;;;;;;6.85;100;100619.3;;;;-76
2022/12/21 20:34:23;;;;;;;;;;;;;;;6.87;100;100618.1;;;;-76
2022/12/21 20:39:22;;;;;;;;;;;;;;;6.88;100;100607;;;;-75
2022/12/21 20:44:21;;;;;;;;;;;;;;;6.91;100;100608.9;;;;-75
2022/12/21 20:49:23;;;;;;;;;;;;;;;6.91;100;100608.1;;;;-75
2022/12/21 20:52:29;;;;;;;18;8.9;;;;;;;;;;;;;-75
2022/12/21 20:54:22;;;;;;;;;;;;;;;6.92;100;100594.3;;;;-75
2022/12/21 20:59:21;;;;;;;;;;;;;;;6.96;100;100589.8;;;;-75
2022/12/21 21:04:21;;;;;;;;;;;;;;;6.98;100;100578.7;;;;-75
2022/12/21 21:09:23;;;;;;;;;;;;;;;7;100;100571.8;;;;-74
2022/12/21 21:14:21;;;;;;;;;;;;;;;6.99;100;100570.6;;;;-75
2022/12/21 21:19:25;;;;;;;;;;;;;;;7.03;100;100580.1;;;;-74
2022/12/21 21:24:21;;;;;;;;;;;;;;;7.03;100;100586.6;;;;-75
2022/12/21 21:29:24;;;;;;;;;;;;;;;7.04;100;100576.9;;;;-75
2022/12/21 21:34:21;;;;;;;;;;;;;;;7.07;100;100567.9;;;;-74
2022/12/21 21:44:24;;;;;;;;;;;;;;;7.09;100;100558.9;;;;-75
2022/12/21 21:49:22;;;;;;;;;;;;;;;7.11;100;100555.5;;;;-75
2022/12/21 21:52:29;;;;;;;19.8;9.8;;;;;;;;;;;;;-75
2022/12/21 21:54:21;;;;;;;;;;;;;;;7.11;100;100548.6;;;;-76
2022/12/21 21:59:29;;;;;;;;;;;;;;;7.12;100;100548.5;;;;-75
2022/12/21 22:04:21;;;;;;;;;;;;;;;7.13;100;100549.5;;;;-75
2022/12/21 22:09:21;;;;;;;;;;;;;;;7.13;100;100545.4;;;;-75
2022/12/21 22:14:27;;;;;;;;;;;;;;;7.15;100;100545.1;;;;-75
2022/12/21 22:32:10;;;;;;;;;;;;;;;7.16;100;100546.1;;;;-75
2022/12/21 22:34:22;;;;;;;;;;;;;;;7.2;100;100535.3;;;;-74
2022/12/21 22:44:20;;;;;;;;;;;;;;;7.25;100;100530.4;;;;-74
2022/12/21 22:49:20;;;;;;;;;;;;;;;7.26;100;100530.6;;;;-74
2022/12/21 22:52:30;;;;;;;25.4;12.4;;;;;;;;;;;;;-75
2022/12/21 22:54:23;;;;;;;;;;;;;;;7.28;100;100528.4;;;;-74
2022/12/21 22:59:22;;;;;;;;;;;;;;;7.3;100;100522.4;;;;-73
2022/12/21 23:04:22;;;;;;;;;;;;;;;7.31;100;100524.1;;;;-74
2022/12/21 23:09:21;;;;;;;;;;;;;;;7.29;100;100529.8;;;;-73
2022/12/21 23:19:21;;;;;;;;;;;;;;;7.32;100;100519.6;;;;-74
2022/12/21 23:29:22;;;;;;;;;;;;;;;7.34;100;100509.2;;;;-74
2022/12/21 23:44:21;;;;;;;;;;;;;;;7.35;100;100491.5;;;;-73
